createdAt,value
2019-05-09T00:02:10.611Z,99020.80
2019-05-09T00:04:39.274Z,99018.47
2019-05-09T00:07:08.346Z,99010.42
2019-05-09T00:09:40.175Z,99015.95
2019-05-09T00:12:09.302Z,99008.58
2019-05-09T00:14:38.283Z,99002.20
2019-05-09T00:17:07.114Z,99007.21
2019-05-09T00:19:36.369Z,99011.89
2019-05-09T00:22:05.161Z,99015.13
2019-05-09T00:24:35.002Z,99017.02
2019-05-09T00:27:03.947Z,99008.92
2019-05-09T00:29:38.128Z,99011.41
2019-05-09T00:32:14.924Z,99004.07
2019-05-09T00:34:53.533Z,99003.79
2019-05-09T00:37:43.174Z,99013.16
2019-05-09T00:40:13.219Z,99012.06
2019-05-09T00:42:44.087Z,99013.59
2019-05-09T00:45:23.854Z,99012.86
2019-05-09T00:47:53.915Z,99011.73
2019-05-09T00:50:23.579Z,99010.05
2019-05-09T00:52:53.721Z,99005.84
2019-05-09T00:55:23.860Z,99009.75
2019-05-09T00:57:53.427Z,99009.95
2019-05-09T01:00:24.277Z,99015.82
2019-05-09T01:02:54.397Z,99013.66
2019-05-09T01:05:23.952Z,99018.34
2019-05-09T01:07:55.496Z,99019.78
2019-05-09T01:10:24.137Z,99017.39
2019-05-09T01:12:54.191Z,99017.02
2019-05-09T01:15:23.964Z,99010.54
2019-05-09T01:17:53.580Z,99004.16
2019-05-09T01:20:24.394Z,98998.12
2019-05-09T01:22:54.883Z,99003.52
2019-05-09T01:25:24.125Z,99007.36
2019-05-09T01:27:53.877Z,99011.75
2019-05-09T01:30:24.171Z,99022.90
2019-05-09T01:33:08.871Z,99026.86
2019-05-09T01:35:37.545Z,99023.49
2019-05-09T01:38:06.174Z,99028.55
2019-05-09T01:40:34.818Z,99033.83
2019-05-09T01:43:04.619Z,99026.75
2019-05-09T01:45:34.237Z,99027.40
2019-05-09T01:48:03.370Z,99028.91
2019-05-09T01:50:34.042Z,99031.92
2019-05-09T01:53:04.025Z,99036.64
2019-05-09T01:55:58.311Z,99046.92
2019-05-09T01:58:34.268Z,99042.88
2019-05-09T02:01:04.304Z,99044.14
2019-05-09T02:03:33.776Z,99052.01
2019-05-09T02:06:03.805Z,99047.98
2019-05-09T02:08:34.545Z,99054.95
2019-05-09T02:11:03.906Z,99049.67
2019-05-09T02:13:33.825Z,99048.83
2019-05-09T02:16:10.288Z,99056.39
2019-05-09T02:18:47.178Z,99058.74
2019-05-09T02:21:15.820Z,99061.97
2019-05-09T02:23:48.451Z,99059.70
2019-05-09T02:26:17.064Z,99059.50
2019-05-09T02:28:46.129Z,99061.19
2019-05-09T02:31:16.302Z,99059.28
2019-05-09T02:33:46.044Z,99054.65
2019-05-09T02:36:14.861Z,99054.17
2019-05-09T02:38:43.783Z,99056.45
2019-05-09T02:41:13.435Z,99057.41
2019-05-09T02:43:42.114Z,99057.41
2019-05-09T02:46:31.796Z,99065.21
2019-05-09T02:49:00.490Z,99064.37
2019-05-09T02:51:29.478Z,99062.28
2019-05-09T02:53:58.692Z,99067.48
2019-05-09T02:56:29.527Z,99069.42
2019-05-09T02:59:29.701Z,99067.91
2019-05-09T03:02:05.095Z,99068.28
2019-05-09T03:04:38.916Z,99067.58
2019-05-09T03:07:09.745Z,99067.91
2019-05-09T03:09:38.822Z,99067.55
2019-05-09T03:12:22.753Z,99069.42
2019-05-09T03:14:38.627Z,99063.41
2019-05-09T03:17:08.838Z,99061.84
2019-05-09T03:19:38.888Z,99060.23
2019-05-09T03:22:14.015Z,99070.80
2019-05-09T03:24:43.694Z,99067.62
2019-05-09T03:27:19.549Z,99070.48
2019-05-09T03:29:53.105Z,99074.62
2019-05-09T03:32:22.054Z,99072.39
2019-05-09T03:34:50.737Z,99071.63
2019-05-09T03:37:19.675Z,99067.66
2019-05-09T03:39:48.282Z,99076.17
2019-05-09T03:42:21.209Z,99070.42
2019-05-09T03:44:48.120Z,99076.17
2019-05-09T03:47:35.003Z,99079.77
2019-05-09T03:50:08.872Z,99078.92
2019-05-09T03:52:38.083Z,99085.61
2019-05-09T03:55:10.598Z,99092.20
2019-05-09T03:57:43.578Z,99096.16
2019-05-09T04:00:13.423Z,99096.45
2019-05-09T04:02:42.425Z,99091.65
2019-05-09T04:05:12.900Z,99091.42
2019-05-09T04:07:42.992Z,99098.69
2019-05-09T04:10:11.732Z,99100.48
2019-05-09T04:12:52.772Z,99096.88
2019-05-09T04:15:11.431Z,99102.16
2019-05-09T04:17:43.577Z,99103.01
2019-05-09T04:20:17.508Z,99104.80
2019-05-09T04:22:49.021Z,99103.13
2019-05-09T04:25:23.441Z,99110.82
2019-05-09T04:27:53.213Z,99113.09
2019-05-09T04:30:21.914Z,99109.86
2019-05-09T04:32:50.942Z,99115.52
2019-05-09T04:35:39.388Z,99113.75
2019-05-09T04:38:08.433Z,99113.05
2019-05-09T04:40:44.936Z,99107.41
2019-05-09T04:43:16.604Z,99110.78
2019-05-09T04:45:47.337Z,99121.70
2019-05-09T04:48:37.384Z,99132.81
2019-05-09T04:51:08.125Z,99127.90
2019-05-09T04:53:39.939Z,99130.83
2019-05-09T04:56:25.047Z,99133.36
2019-05-09T04:59:28.164Z,99134.09
2019-05-09T05:02:50.106Z,99132.95
2019-05-09T05:05:54.846Z,99137.75
2019-05-09T05:08:24.875Z,99143.09
2019-05-09T05:10:54.013Z,99150.06
2019-05-09T05:13:26.766Z,99146.76
2019-05-09T05:15:53.719Z,99153.25
2019-05-09T05:18:22.727Z,99160.45
2019-05-09T05:20:52.614Z,99164.92
2019-05-09T05:23:28.415Z,99163.59
2019-05-09T05:25:57.971Z,99152.24
2019-05-09T05:28:27.827Z,99157.29
2019-05-09T05:30:58.195Z,99161.96
2019-05-09T05:33:51.209Z,99168.85
2019-05-09T05:36:18.218Z,99155.83
2019-05-09T05:38:48.055Z,99159.73
2019-05-09T05:41:18.314Z,99162.71
2019-05-09T05:43:48.156Z,99163.61
2019-05-09T05:46:37.925Z,99162.83
2019-05-09T05:49:08.033Z,99161.78
2019-05-09T05:51:48.964Z,99166.05
2019-05-09T05:54:21.952Z,99164.67
2019-05-09T05:56:50.645Z,99172.92
2019-05-09T05:59:19.262Z,99170.97
2019-05-09T06:01:48.911Z,99170.97
2019-05-09T06:04:19.218Z,99176.92
2019-05-09T06:06:48.634Z,99179.84
2019-05-09T06:09:19.050Z,99185.63
2019-05-09T06:12:10.752Z,99192.06
2019-05-09T06:14:39.432Z,99197.49
2019-05-09T06:17:08.720Z,99193.56
2019-05-09T06:19:38.193Z,99197.58
2019-05-09T06:22:09.513Z,99198.98
2019-05-09T06:24:38.911Z,99207.97
2019-05-09T06:27:10.135Z,99199.22
2019-05-09T06:29:39.058Z,99204.52
2019-05-09T06:32:08.000Z,99200.96
2019-05-09T06:34:41.845Z,99209.14
2019-05-09T06:37:09.441Z,99204.08
2019-05-09T06:39:38.186Z,99205.77
2019-05-09T06:42:09.181Z,99205.61
2019-05-09T06:44:58.430Z,99205.77
2019-05-09T06:47:30.865Z,99207.89
2019-05-09T06:50:03.040Z,99202.59
2019-05-09T06:52:32.061Z,99210.63
2019-05-09T06:55:01.021Z,99212.30
2019-05-09T06:57:30.346Z,99211.94
2019-05-09T06:59:58.963Z,99218.88
2019-05-09T07:02:57.456Z,99216.56
2019-05-09T07:05:33.025Z,99218.17
2019-05-09T07:08:27.291Z,99210.53
2019-05-09T07:10:58.489Z,99214.67
2019-05-09T07:13:28.432Z,99219.48
2019-05-09T07:15:58.487Z,99225.86
2019-05-09T07:18:27.703Z,99224.30
2019-05-09T07:20:57.717Z,99219.48
2019-05-09T07:23:28.202Z,99219.73
2019-05-09T07:26:07.555Z,99219.48
2019-05-09T07:28:37.661Z,99224.30
2019-05-09T07:31:27.867Z,99225.38
2019-05-09T07:34:19.162Z,99227.83
2019-05-09T07:36:48.191Z,99230.31
2019-05-09T07:39:17.657Z,99233.97
2019-05-09T07:41:47.847Z,99235.14
2019-05-09T07:44:18.195Z,99233.41
2019-05-09T07:46:58.230Z,99235.25
2019-05-09T07:49:28.633Z,99237.93
2019-05-09T07:52:00.413Z,99240.83
2019-05-09T07:54:29.440Z,99240.83
2019-05-09T07:56:58.834Z,99239.86
2019-05-09T07:59:27.848Z,99237.57
2019-05-09T08:01:58.145Z,99240.07
2019-05-09T08:04:28.754Z,99243.53
2019-05-09T08:06:57.980Z,99244.47
2019-05-09T08:09:28.141Z,99243.48
2019-05-09T08:11:58.750Z,99243.23
2019-05-09T08:14:28.395Z,99243.53
2019-05-09T08:16:58.199Z,99248.34
2019-05-09T08:19:27.802Z,99244.63
2019-05-09T08:21:57.551Z,99249.20
2019-05-09T08:24:27.801Z,99248.73
2019-05-09T08:26:58.018Z,99249.13
2019-05-09T08:29:28.241Z,99249.84
2019-05-09T08:31:58.300Z,99256.66
2019-05-09T08:34:28.445Z,99246.72
2019-05-09T08:36:58.151Z,99255.22
2019-05-09T08:39:27.666Z,99257.27
2019-05-09T08:41:59.195Z,99261.51
2019-05-09T08:44:28.584Z,99261.73
2019-05-09T08:46:57.892Z,99272.34
2019-05-09T08:49:34.179Z,99268.72
2019-05-09T08:52:13.063Z,99265.90
2019-05-09T08:54:50.173Z,99268.72
2019-05-09T08:57:21.235Z,99266.48
2019-05-09T08:59:50.999Z,99264.76
2019-05-09T09:02:22.419Z,99257.09
2019-05-09T09:04:51.222Z,99264.90
2019-05-09T09:07:20.299Z,99263.39
2019-05-09T09:09:48.873Z,99268.20
2019-05-09T09:12:29.454Z,99268.92
2019-05-09T09:14:49.197Z,99271.66
2019-05-09T09:17:18.683Z,99266.38
2019-05-09T09:19:48.085Z,99271.99
2019-05-09T09:22:17.962Z,99272.38
2019-05-09T09:24:48.171Z,99265.84
2019-05-09T09:27:18.255Z,99263.81
2019-05-09T09:29:48.141Z,99262.77
2019-05-09T09:32:18.884Z,99257.16
2019-05-09T09:34:48.731Z,99258.27
2019-05-09T09:37:18.479Z,99255.23
2019-05-09T09:39:48.842Z,99257.88
2019-05-09T09:42:19.924Z,99253.80
2019-05-09T09:44:49.191Z,99251.55
2019-05-09T09:47:23.266Z,99259.02
2019-05-09T09:49:49.925Z,99257.69
2019-05-09T09:52:18.968Z,99262.37
2019-05-09T09:54:48.186Z,99264.98
2019-05-09T09:57:19.032Z,99266.88
2019-05-09T10:00:14.302Z,99266.22
2019-05-09T10:02:43.086Z,99266.04
2019-05-09T10:05:12.640Z,99259.09
2019-05-09T10:07:41.766Z,99266.70
2019-05-09T10:10:36.099Z,99270.20
2019-05-09T10:13:05.237Z,99261.72
2019-05-09T10:16:02.943Z,99258.86
2019-05-09T10:18:40.599Z,99265.41
2019-05-09T10:21:16.901Z,99254.58
2019-05-09T10:23:45.425Z,99260.15
2019-05-09T10:26:14.510Z,99267.47
2019-05-09T10:28:45.502Z,99260.34
2019-05-09T10:31:15.232Z,99268.86
2019-05-09T10:33:44.955Z,99269.80
2019-05-09T10:36:13.971Z,99268.00
2019-05-09T10:38:42.644Z,99263.88
2019-05-09T10:41:11.755Z,99259.70
2019-05-09T10:43:59.779Z,99264.19
2019-05-09T10:46:57.329Z,99267.73
2019-05-09T10:49:22.749Z,99257.81
2019-05-09T10:51:51.525Z,99256.96
2019-05-09T10:54:20.625Z,99251.85
2019-05-09T10:56:49.617Z,99249.86
2019-05-09T10:59:18.876Z,99252.42
2019-05-09T11:01:49.638Z,99253.72
2019-05-09T11:04:18.139Z,99255.22
2019-05-09T11:06:47.566Z,99252.18
2019-05-09T11:09:18.192Z,99244.75
2019-05-09T11:11:48.401Z,99250.02
2019-05-09T11:14:32.157Z,99246.66
2019-05-09T11:16:54.228Z,99249.50
2019-05-09T11:19:19.076Z,99250.53
2019-05-09T11:21:47.955Z,99256.02
2019-05-09T11:24:18.793Z,99256.30
2019-05-09T11:26:48.277Z,99261.45
2019-05-09T11:29:18.758Z,99252.58
2019-05-09T11:31:48.335Z,99255.48
2019-05-09T11:34:18.869Z,99255.22
2019-05-09T11:36:49.609Z,99259.91
2019-05-09T11:39:35.299Z,99249.62
2019-05-09T11:41:48.873Z,99253.66
2019-05-09T11:44:18.455Z,99255.39
2019-05-09T11:46:47.707Z,99254.72
2019-05-09T11:49:18.812Z,99254.44
2019-05-09T11:51:49.028Z,99249.23
2019-05-09T11:54:19.451Z,99252.48
2019-05-09T11:56:48.599Z,99257.80
2019-05-09T11:59:18.903Z,99260.84
2019-05-09T12:01:48.411Z,99259.89
2019-05-09T12:04:18.769Z,99251.73
2019-05-09T12:06:49.300Z,99266.06
2019-05-09T12:09:18.177Z,99263.30
2019-05-09T12:11:48.305Z,99259.98
2019-05-09T12:14:17.078Z,99256.55
2019-05-09T12:16:48.090Z,99257.27
2019-05-09T12:19:18.034Z,99253.20
2019-05-09T12:21:48.432Z,99249.36
2019-05-09T12:24:18.514Z,99250.30
2019-05-09T12:26:48.302Z,99253.47
2019-05-09T12:29:19.538Z,99253.93
2019-05-09T12:31:49.181Z,99256.13
2019-05-09T12:34:19.303Z,99252.48
2019-05-09T12:36:49.288Z,99257.44
2019-05-09T12:39:19.156Z,99257.00
2019-05-09T12:41:48.540Z,99257.59
2019-05-09T12:44:18.569Z,99257.56
2019-05-09T12:46:48.805Z,99252.35
2019-05-09T12:49:18.944Z,99243.39
2019-05-09T12:51:48.128Z,99240.64
2019-05-09T12:54:19.068Z,99245.33
2019-05-09T12:56:48.786Z,99235.91
2019-05-09T12:59:18.903Z,99245.81
2019-05-09T13:01:49.106Z,99242.27
2019-05-09T13:04:18.498Z,99246.78
2019-05-09T13:06:48.901Z,99244.93
2019-05-09T13:09:18.135Z,99242.36
2019-05-09T13:11:48.297Z,99240.19
2019-05-09T13:14:19.281Z,99235.97
2019-05-09T13:17:08.586Z,99243.67
2019-05-09T13:19:40.901Z,99238.86
2019-05-09T13:22:10.894Z,99241.56
2019-05-09T13:24:39.896Z,99233.89
2019-05-09T13:27:09.260Z,99242.09
2019-05-09T13:29:38.667Z,99234.38
2019-05-09T13:32:08.739Z,99233.75
2019-05-09T13:34:38.252Z,99238.95
2019-05-09T13:37:09.126Z,99238.97
2019-05-09T13:39:39.660Z,99237.94
2019-05-09T13:42:08.327Z,99233.89
2019-05-09T13:44:41.264Z,99245.95
2019-05-09T13:47:11.179Z,99234.48
2019-05-09T13:49:50.151Z,99238.22
2019-05-09T13:52:19.125Z,99234.40
2019-05-09T13:54:48.336Z,99243.19
2019-05-09T13:57:18.731Z,99238.93
2019-05-09T13:59:59.737Z,99242.77
2019-05-09T14:02:29.363Z,99239.69
2019-05-09T14:04:58.590Z,99244.10
2019-05-09T14:07:28.058Z,99240.88
2019-05-09T14:09:57.500Z,99241.63
2019-05-09T14:12:28.775Z,99243.28
2019-05-09T14:14:58.174Z,99241.22
2019-05-09T14:17:44.737Z,99240.42
2019-05-09T14:19:58.731Z,99237.92
2019-05-09T14:22:28.850Z,99240.26
2019-05-09T14:24:59.181Z,99245.09
2019-05-09T14:27:29.064Z,99248.18
2019-05-09T14:29:59.795Z,99253.44
2019-05-09T14:32:31.322Z,99241.98
2019-05-09T14:35:00.634Z,99248.97
2019-05-09T14:37:30.706Z,99247.30
2019-05-09T14:40:04.279Z,99247.02
2019-05-09T14:42:30.466Z,99246.98
2019-05-09T14:44:59.561Z,99247.63
2019-05-09T14:47:28.572Z,99250.48
2019-05-09T14:49:59.361Z,99241.69
2019-05-09T14:52:29.186Z,99244.59
2019-05-09T14:54:58.265Z,99232.56
2019-05-09T14:57:38.378Z,99233.75
2019-05-09T15:00:08.449Z,99242.62
2019-05-09T15:02:38.831Z,99248.34
2019-05-09T15:05:09.556Z,99245.91
2019-05-09T15:07:39.260Z,99248.63
2019-05-09T15:10:08.897Z,99246.85
2019-05-09T15:12:39.111Z,99245.07
2019-05-09T15:15:08.558Z,99239.95
2019-05-09T15:17:37.671Z,99245.63
2019-05-09T15:20:08.800Z,99239.23
2019-05-09T15:22:38.669Z,99240.78
2019-05-09T15:25:10.360Z,99240.53
2019-05-09T15:27:39.542Z,99240.95
2019-05-09T15:30:08.867Z,99237.30
2019-05-09T15:32:37.902Z,99239.58
2019-05-09T15:35:08.974Z,99240.98
2019-05-09T15:37:38.541Z,99238.11
2019-05-09T15:40:09.394Z,99239.28
2019-05-09T15:42:38.917Z,99239.03
2019-05-09T15:45:08.854Z,99240.80
2019-05-09T15:47:38.219Z,99246.89
2019-05-09T15:50:16.554Z,99240.02
2019-05-09T15:52:38.229Z,99244.61
2019-05-09T15:55:09.448Z,99249.73
2019-05-09T15:57:38.122Z,99246.19
2019-05-09T16:00:08.337Z,99243.91
2019-05-09T16:06:32.559Z,99241.77
2019-05-09T16:08:58.581Z,99246.32
2019-05-09T16:11:28.579Z,99252.84
2019-05-09T16:13:57.448Z,99255.02
2019-05-09T16:16:28.638Z,99254.37
2019-05-09T16:18:58.281Z,99248.03
2019-05-09T16:21:27.915Z,99253.11
2019-05-09T16:23:59.328Z,99246.84
2019-05-09T16:27:15.946Z,99248.02
2019-05-09T16:29:45.195Z,99244.75
2019-05-09T16:32:17.639Z,99249.45
2019-05-09T16:34:46.208Z,99249.45
2019-05-09T16:37:15.543Z,99247.89
2019-05-09T16:39:44.606Z,99249.48
2019-05-09T16:42:14.242Z,99246.50
2019-05-09T16:44:43.220Z,99253.92
2019-05-09T16:47:12.587Z,99254.76
2019-05-09T16:49:41.723Z,99259.88
2019-05-09T16:52:10.692Z,99267.53
2019-05-09T16:54:42.181Z,99279.69
2019-05-09T16:57:10.814Z,99273.55
2019-05-09T16:59:40.310Z,99276.52
2019-05-09T17:02:18.886Z,99279.34
2019-05-09T17:04:40.705Z,99276.32
2019-05-09T17:07:14.549Z,99284.27
2019-05-09T17:09:45.014Z,99290.66
2019-05-09T17:12:13.731Z,99288.27
2019-05-09T17:14:42.940Z,99293.39
2019-05-09T17:17:14.194Z,99295.05
2019-05-09T17:19:43.841Z,99298.49
2019-05-09T17:22:17.433Z,99303.05
2019-05-09T17:24:48.507Z,99295.77
2019-05-09T17:27:18.829Z,99299.63
2019-05-09T17:29:48.013Z,99309.10
2019-05-09T17:32:18.296Z,99307.59
2019-05-09T17:34:48.549Z,99307.59
2019-05-09T17:37:17.924Z,99306.25
2019-05-09T17:39:47.773Z,99309.90
2019-05-09T17:42:18.332Z,99309.31
2019-05-09T17:44:48.782Z,99312.38
2019-05-09T17:47:17.725Z,99314.34
2019-05-09T17:49:48.204Z,99319.28
2019-05-09T17:52:18.254Z,99322.44
2019-05-09T17:54:48.537Z,99325.69
2019-05-09T17:57:19.265Z,99323.02
2019-05-09T17:59:48.840Z,99324.70
2019-05-09T18:02:18.767Z,99326.67
2019-05-09T18:04:48.290Z,99329.34
2019-05-09T18:07:18.012Z,99330.94
2019-05-09T18:09:48.363Z,99336.27
2019-05-09T18:12:18.929Z,99347.48
2019-05-09T18:14:48.870Z,99341.17
2019-05-09T18:17:18.093Z,99343.70
2019-05-09T18:19:47.531Z,99352.30
2019-05-09T18:22:18.410Z,99350.28
2019-05-09T18:24:48.220Z,99351.18
2019-05-09T18:27:18.135Z,99349.56
2019-05-09T18:29:47.595Z,99349.38
2019-05-09T18:32:51.095Z,99349.45
2019-05-09T18:35:21.948Z,99344.76
2019-05-09T18:37:51.836Z,99348.20
2019-05-09T18:40:21.124Z,99347.67
2019-05-09T18:42:51.083Z,99351.55
2019-05-09T18:45:20.759Z,99350.16
2019-05-09T18:47:50.039Z,99353.28
2019-05-09T18:50:19.577Z,99353.98
2019-05-09T18:52:48.645Z,99351.80
2019-05-09T18:55:17.875Z,99353.55
2019-05-09T18:57:46.699Z,99361.21
2019-05-09T19:00:17.089Z,99356.04
2019-05-09T19:02:46.571Z,99359.75
2019-05-09T19:05:15.755Z,99364.58
2019-05-09T19:07:45.087Z,99370.97
2019-05-09T19:10:13.967Z,99366.23
2019-05-09T19:12:42.755Z,99374.73
2019-05-09T19:15:23.075Z,99378.65
2019-05-09T19:18:05.583Z,99381.91
2019-05-09T19:20:45.389Z,99384.41
2019-05-09T19:23:14.458Z,99388.19
2019-05-09T19:25:43.670Z,99391.82
2019-05-09T19:28:12.440Z,99396.30
2019-05-09T19:30:41.183Z,99403.33
2019-05-09T19:33:10.644Z,99404.88
2019-05-09T19:35:40.020Z,99400.69
2019-05-09T19:38:08.705Z,99401.81
2019-05-09T19:40:37.305Z,99400.48
2019-05-09T19:43:06.024Z,99393.12
2019-05-09T19:45:34.734Z,99404.47
2019-05-09T19:48:03.442Z,99403.27
2019-05-09T19:50:32.462Z,99403.12
2019-05-09T19:53:01.543Z,99412.22
2019-05-09T19:55:30.755Z,99412.72
2019-05-09T19:58:00.286Z,99412.95
2019-05-09T20:00:29.448Z,99414.63
2019-05-09T20:02:58.826Z,99415.13
2019-05-09T20:05:29.493Z,99422.17
2019-05-09T20:07:58.511Z,99421.78
2019-05-09T20:10:45.583Z,99427.85
2019-05-09T20:13:25.905Z,99430.26
2019-05-09T20:15:55.267Z,99433.89
2019-05-09T20:18:24.779Z,99436.47
2019-05-09T20:20:53.521Z,99439.70
2019-05-09T20:23:22.572Z,99437.17
2019-05-09T20:25:51.600Z,99434.30
2019-05-09T20:28:20.652Z,99441.07
2019-05-09T20:30:49.278Z,99440.94
2019-05-09T20:33:17.909Z,99447.72
2019-05-09T20:35:47.027Z,99444.08
2019-05-09T20:38:16.048Z,99451.83
2019-05-09T20:40:44.685Z,99457.27
2019-05-09T20:43:13.555Z,99451.20
2019-05-09T20:45:42.219Z,99452.66
2019-05-09T20:48:10.954Z,99454.34
2019-05-09T20:50:39.997Z,99457.97
2019-05-09T20:53:10.070Z,99465.45
2019-05-09T20:55:39.385Z,99461.09
2019-05-09T20:58:08.403Z,99466.05
2019-05-09T21:00:37.455Z,99465.20
2019-05-09T21:03:08.209Z,99473.44
2019-05-09T21:05:37.508Z,99475.70
2019-05-09T21:08:06.157Z,99472.09
2019-05-09T21:10:34.811Z,99470.13
2019-05-09T21:13:04.209Z,99480.53
2019-05-09T21:15:33.194Z,99475.30
2019-05-09T21:18:01.895Z,99473.75
2019-05-09T21:20:30.676Z,99480.63
2019-05-09T21:22:59.314Z,99481.23
2019-05-09T21:25:28.409Z,99485.55
2019-05-09T21:27:57.199Z,99486.50
2019-05-09T21:30:26.197Z,99481.67
2019-05-09T21:32:54.824Z,99486.00
2019-05-09T21:35:23.836Z,99488.99
2019-05-09T21:37:52.865Z,99484.53
2019-05-09T21:40:22.325Z,99487.03
2019-05-09T21:42:50.968Z,99486.46
2019-05-09T21:45:19.649Z,99489.77
2019-05-09T21:47:48.294Z,99505.58
2019-05-09T21:50:17.041Z,99501.92
2019-05-09T21:52:46.415Z,99504.06
2019-05-09T21:55:15.067Z,99506.84
2019-05-09T21:57:44.461Z,99510.46
2019-05-09T22:00:22.004Z,99506.52
2019-05-09T22:02:50.744Z,99509.70
2019-05-09T22:05:20.308Z,99511.88
2019-05-09T22:07:50.695Z,99515.86
2019-05-09T22:10:19.916Z,99519.11
2019-05-09T22:12:49.334Z,99522.86
2019-05-09T22:15:18.430Z,99521.41
2019-05-09T22:17:48.118Z,99531.14
2019-05-09T22:20:18.725Z,99527.16
2019-05-09T22:22:47.733Z,99520.37
2019-05-09T22:25:16.835Z,99523.63
2019-05-09T22:27:45.903Z,99528.45
2019-05-09T22:30:16.010Z,99525.77
2019-05-09T22:32:45.573Z,99531.79
2019-05-09T22:35:15.373Z,99524.88
2019-05-09T22:37:44.784Z,99532.11
2019-05-09T22:40:15.367Z,99531.75
2019-05-09T22:42:44.408Z,99535.36
2019-05-09T22:45:13.935Z,99532.55
2019-05-09T22:47:42.786Z,99533.39
2019-05-09T22:50:12.174Z,99536.77
2019-05-09T22:52:41.137Z,99535.20
2019-05-09T22:55:10.741Z,99541.67
2019-05-09T22:57:40.393Z,99538.45
2019-05-09T23:00:10.230Z,99538.09
2019-05-09T23:02:38.881Z,99542.52
2019-05-09T23:05:07.701Z,99542.88
2019-05-09T23:07:36.867Z,99545.52
2019-05-09T23:10:06.097Z,99555.97
2019-05-09T23:12:35.081Z,99551.26
2019-05-09T23:15:04.486Z,99551.94
2019-05-09T23:17:33.502Z,99553.50
2019-05-09T23:20:04.731Z,99548.08
2019-05-09T23:22:33.654Z,99549.24
2019-05-09T23:25:05.198Z,99550.44
2019-05-09T23:27:34.358Z,99549.79
2019-05-09T23:30:04.069Z,99547.50
2019-05-09T23:32:36.639Z,99553.03
2019-05-09T23:35:05.344Z,99550.27
2019-05-09T23:37:35.495Z,99549.17
2019-05-09T23:40:05.468Z,99550.50
2019-05-09T23:42:37.527Z,99547.93
2019-05-09T23:45:06.413Z,99546.36
2019-05-09T23:47:35.441Z,99550.22
2019-05-09T23:50:05.481Z,99555.75
2019-05-09T23:52:34.540Z,99554.14
2019-05-09T23:55:21.187Z,99545.34
2019-05-09T23:58:08.051Z,99548.11
